sensor_id;sensor_type;location;lat;lon;timestamp;P1;durP1;ratioP1;P2;durP2;ratioP2
13234;SDS011;6683;48.506;9.050;2023-08-20T00:01:35;7.32;;;4.30;;
13234;SDS011;6683;48.506;9.050;2023-08-20T00:04:38;6.03;;;5.22;;
13234;SDS011;6683;48.506;9.050;2023-08-20T00:07:45;5.70;;;4.28;;
13234;SDS011;6683;48.506;9.050;2023-08-20T00:10:47;5.70;;;4.50;;
13234;SDS011;6683;48.506;9.050;2023-08-20T00:13:49;5.40;;;4.65;;
13234;SDS011;6683;48.506;9.050;2023-08-20T00:16:51;8.43;;;5.00;;
13234;SDS011;6683;48.506;9.050;2023-08-20T00:19:54;5.27;;;4.20;;
13234;SDS011;6683;48.506;9.050;2023-08-20T00:23:00;4.97;;;4.57;;
13234;SDS011;6683;48.506;9.050;2023-08-20T00:26:03;5.10;;;4.60;;
13234;SDS011;6683;48.506;9.050;2023-08-20T00:29:06;4.87;;;4.47;;
13234;SDS011;6683;48.506;9.050;2023-08-20T00:32:08;5.33;;;4.17;;
13234;SDS011;6683;48.506;9.050;2023-08-20T00:35:10;5.90;;;5.32;;
13234;SDS011;6683;48.506;9.050;2023-08-20T00:38:13;5.70;;;5.30;;
13234;SDS011;6683;48.506;9.050;2023-08-20T00:41:15;5.68;;;4.82;;
13234;SDS011;6683;48.506;9.050;2023-08-20T00:44:18;5.78;;;4.70;;
13234;SDS011;6683;48.506;9.050;2023-08-20T00:47:21;5.30;;;4.90;;
13234;SDS011;6683;48.506;9.050;2023-08-20T00:50:23;6.43;;;4.97;;
13234;SDS011;6683;48.506;9.050;2023-08-20T00:53:27;5.67;;;5.10;;
13234;SDS011;6683;48.506;9.050;2023-08-20T00:56:29;5.27;;;4.77;;
13234;SDS011;6683;48.506;9.050;2023-08-20T00:59:32;7.40;;;5.03;;
13234;SDS011;6683;48.506;9.050;2023-08-20T01:02:35;6.77;;;5.13;;
13234;SDS011;6683;48.506;9.050;2023-08-20T01:05:39;5.10;;;4.70;;
13234;SDS011;6683;48.506;9.050;2023-08-20T01:08:53;6.40;;;5.20;;
13234;SDS011;6683;48.506;9.050;2023-08-20T01:12:03;5.70;;;4.90;;
13234;SDS011;6683;48.506;9.050;2023-08-20T01:15:07;5.30;;;4.80;;
13234;SDS011;6683;48.506;9.050;2023-08-20T01:18:13;6.17;;;4.97;;
13234;SDS011;6683;48.506;9.050;2023-08-20T01:21:20;5.50;;;4.88;;
13234;SDS011;6683;48.506;9.050;2023-08-20T01:24:42;5.35;;;4.70;;
13234;SDS011;6683;48.506;9.050;2023-08-20T01:27:52;5.70;;;5.20;;
13234;SDS011;6683;48.506;9.050;2023-08-20T01:31:05;5.07;;;4.67;;
13234;SDS011;6683;48.506;9.050;2023-08-20T01:34:09;5.63;;;5.13;;
13234;SDS011;6683;48.506;9.050;2023-08-20T01:37:11;5.30;;;4.90;;
13234;SDS011;6683;48.506;9.050;2023-08-20T01:40:13;5.50;;;5.00;;
13234;SDS011;6683;48.506;9.050;2023-08-20T01:43:15;5.60;;;5.10;;
13234;SDS011;6683;48.506;9.050;2023-08-20T01:46:19;5.33;;;4.90;;
13234;SDS011;6683;48.506;9.050;2023-08-20T01:49:21;6.87;;;5.23;;
13234;SDS011;6683;48.506;9.050;2023-08-20T01:52:23;6.00;;;5.50;;
13234;SDS011;6683;48.506;9.050;2023-08-20T01:55:25;9.10;;;5.97;;
13234;SDS011;6683;48.506;9.050;2023-08-20T01:58:28;6.17;;;4.77;;
13234;SDS011;6683;48.506;9.050;2023-08-20T02:01:32;6.20;;;5.67;;
13234;SDS011;6683;48.506;9.050;2023-08-20T02:04:34;6.43;;;5.23;;
13234;SDS011;6683;48.506;9.050;2023-08-20T02:07:36;5.57;;;5.07;;
13234;SDS011;6683;48.506;9.050;2023-08-20T02:10:38;7.13;;;4.93;;
13234;SDS011;6683;48.506;9.050;2023-08-20T02:13:40;7.67;;;5.23;;
13234;SDS011;6683;48.506;9.050;2023-08-20T02:16:45;5.50;;;5.00;;
13234;SDS011;6683;48.506;9.050;2023-08-20T02:19:48;5.33;;;4.93;;
13234;SDS011;6683;48.506;9.050;2023-08-20T02:22:50;5.10;;;4.70;;
13234;SDS011;6683;48.506;9.050;2023-08-20T02:25:52;5.37;;;4.77;;
13234;SDS011;6683;48.506;9.050;2023-08-20T02:28:54;6.17;;;5.10;;
13234;SDS011;6683;48.506;9.050;2023-08-20T02:31:57;7.43;;;4.80;;
13234;SDS011;6683;48.506;9.050;2023-08-20T02:35:00;5.80;;;4.60;;
13234;SDS011;6683;48.506;9.050;2023-08-20T02:38:05;4.93;;;4.53;;
13234;SDS011;6683;48.506;9.050;2023-08-20T02:41:09;5.70;;;5.10;;
13234;SDS011;6683;48.506;9.050;2023-08-20T02:44:12;5.50;;;5.03;;
13234;SDS011;6683;48.506;9.050;2023-08-20T02:47:15;6.47;;;5.23;;
13234;SDS011;6683;48.506;9.050;2023-08-20T02:50:17;5.57;;;5.03;;
13234;SDS011;6683;48.506;9.050;2023-08-20T02:53:19;5.77;;;5.27;;
13234;SDS011;6683;48.506;9.050;2023-08-20T02:56:22;5.67;;;5.17;;
13234;SDS011;6683;48.506;9.050;2023-08-20T02:59:24;5.33;;;4.83;;
13234;SDS011;6683;48.506;9.050;2023-08-20T03:02:28;5.73;;;4.87;;
13234;SDS011;6683;48.506;9.050;2023-08-20T03:05:30;5.77;;;5.20;;
13234;SDS011;6683;48.506;9.050;2023-08-20T03:08:32;6.20;;;5.30;;
13234;SDS011;6683;48.506;9.050;2023-08-20T03:11:34;5.20;;;4.77;;
13234;SDS011;6683;48.506;9.050;2023-08-20T03:14:37;5.73;;;5.23;;
13234;SDS011;6683;48.506;9.050;2023-08-20T03:17:40;6.07;;;5.47;;
13234;SDS011;6683;48.506;9.050;2023-08-20T03:20:42;6.03;;;5.53;;
13234;SDS011;6683;48.506;9.050;2023-08-20T03:23:44;5.90;;;5.30;;
13234;SDS011;6683;48.506;9.050;2023-08-20T03:26:47;5.77;;;5.27;;
13234;SDS011;6683;48.506;9.050;2023-08-20T03:29:49;5.57;;;5.07;;
13234;SDS011;6683;48.506;9.050;2023-08-20T03:32:54;5.47;;;4.97;;
13234;SDS011;6683;48.506;9.050;2023-08-20T03:35:56;7.30;;;5.20;;
13234;SDS011;6683;48.506;9.050;2023-08-20T03:38:58;6.30;;;5.77;;
13234;SDS011;6683;48.506;9.050;2023-08-20T03:42:00;5.90;;;5.40;;
13234;SDS011;6683;48.506;9.050;2023-08-20T03:45:03;7.33;;;5.40;;
13234;SDS011;6683;48.506;9.050;2023-08-20T03:48:07;5.40;;;4.90;;
13234;SDS011;6683;48.506;9.050;2023-08-20T03:51:10;5.77;;;5.27;;
13234;SDS011;6683;48.506;9.050;2023-08-20T03:54:13;6.70;;;5.27;;
13234;SDS011;6683;48.506;9.050;2023-08-20T03:57:15;6.10;;;5.03;;
13234;SDS011;6683;48.506;9.050;2023-08-20T04:00:17;5.90;;;5.30;;
13234;SDS011;6683;48.506;9.050;2023-08-20T04:03:21;5.67;;;5.10;;
13234;SDS011;6683;48.506;9.050;2023-08-20T04:06:23;5.40;;;5.00;;
13234;SDS011;6683;48.506;9.050;2023-08-20T04:09:25;8.33;;;5.57;;
13234;SDS011;6683;48.506;9.050;2023-08-20T04:12:27;6.07;;;5.47;;
13234;SDS011;6683;48.506;9.050;2023-08-20T04:15:29;5.80;;;5.20;;
13234;SDS011;6683;48.506;9.050;2023-08-20T04:18:33;8.33;;;5.70;;
13234;SDS011;6683;48.506;9.050;2023-08-20T04:21:35;6.47;;;5.33;;
13234;SDS011;6683;48.506;9.050;2023-08-20T04:24:37;6.27;;;5.03;;
13234;SDS011;6683;48.506;9.050;2023-08-20T04:27:40;6.20;;;5.20;;
13234;SDS011;6683;48.506;9.050;2023-08-20T04:30:42;6.10;;;5.30;;
13234;SDS011;6683;48.506;9.050;2023-08-20T04:33:47;5.93;;;5.40;;
13234;SDS011;6683;48.506;9.050;2023-08-20T04:36:49;5.47;;;5.00;;
13234;SDS011;6683;48.506;9.050;2023-08-20T04:39:51;6.03;;;5.43;;
13234;SDS011;6683;48.506;9.050;2023-08-20T04:42:53;5.87;;;5.27;;
13234;SDS011;6683;48.506;9.050;2023-08-20T04:45:56;6.07;;;5.40;;
13234;SDS011;6683;48.506;9.050;2023-08-20T04:48:59;5.90;;;5.30;;
13234;SDS011;6683;48.506;9.050;2023-08-20T04:52:01;6.07;;;5.10;;
13234;SDS011;6683;48.506;9.050;2023-08-20T04:55:04;5.83;;;5.33;;
13234;SDS011;6683;48.506;9.050;2023-08-20T04:58:08;6.30;;;5.40;;
13234;SDS011;6683;48.506;9.050;2023-08-20T05:01:10;5.80;;;5.07;;
13234;SDS011;6683;48.506;9.050;2023-08-20T05:04:14;6.13;;;5.53;;
13234;SDS011;6683;48.506;9.050;2023-08-20T05:07:16;5.80;;;5.27;;
13234;SDS011;6683;48.506;9.050;2023-08-20T05:10:18;6.40;;;5.80;;
13234;SDS011;6683;48.506;9.050;2023-08-20T05:13:20;6.90;;;6.20;;
13234;SDS011;6683;48.506;9.050;2023-08-20T05:16:24;6.03;;;5.53;;
13234;SDS011;6683;48.506;9.050;2023-08-20T05:19:27;6.33;;;5.83;;
13234;SDS011;6683;48.506;9.050;2023-08-20T05:22:29;6.33;;;5.40;;
13234;SDS011;6683;48.506;9.050;2023-08-20T05:25:32;6.23;;;5.67;;
13234;SDS011;6683;48.506;9.050;2023-08-20T05:28:34;6.00;;;5.50;;
13234;SDS011;6683;48.506;9.050;2023-08-20T05:31:36;6.53;;;5.93;;
13234;SDS011;6683;48.506;9.050;2023-08-20T05:34:39;6.10;;;5.60;;
13234;SDS011;6683;48.506;9.050;2023-08-20T05:37:42;6.47;;;5.97;;
13234;SDS011;6683;48.506;9.050;2023-08-20T05:40:44;6.40;;;5.80;;
13234;SDS011;6683;48.506;9.050;2023-08-20T05:43:46;6.30;;;5.70;;
13234;SDS011;6683;48.506;9.050;2023-08-20T05:46:48;6.00;;;5.50;;
13234;SDS011;6683;48.506;9.050;2023-08-20T05:49:51;6.30;;;5.70;;
13234;SDS011;6683;48.506;9.050;2023-08-20T05:52:54;6.80;;;6.10;;
13234;SDS011;6683;48.506;9.050;2023-08-20T05:55:56;6.17;;;5.63;;
13234;SDS011;6683;48.506;9.050;2023-08-20T05:58:58;5.70;;;5.20;;
13234;SDS011;6683;48.506;9.050;2023-08-20T06:02:00;7.77;;;5.60;;
13234;SDS011;6683;48.506;9.050;2023-08-20T06:05:05;7.07;;;5.83;;
13234;SDS011;6683;48.506;9.050;2023-08-20T06:08:08;7.40;;;6.40;;
13234;SDS011;6683;48.506;9.050;2023-08-20T06:11:10;7.55;;;5.88;;
13234;SDS011;6683;48.506;9.050;2023-08-20T06:14:12;6.38;;;5.85;;
13234;SDS011;6683;48.506;9.050;2023-08-20T06:17:14;7.45;;;6.35;;
13234;SDS011;6683;48.506;9.050;2023-08-20T06:20:18;6.20;;;5.53;;
13234;SDS011;6683;48.506;9.050;2023-08-20T06:23:20;6.60;;;6.00;;
13234;SDS011;6683;48.506;9.050;2023-08-20T06:26:22;5.93;;;5.43;;
13234;SDS011;6683;48.506;9.050;2023-08-20T06:29:24;6.60;;;6.00;;
13234;SDS011;6683;48.506;9.050;2023-08-20T06:32:26;7.43;;;6.72;;
13234;SDS011;6683;48.506;9.050;2023-08-20T06:35:30;6.78;;;6.18;;
13234;SDS011;6683;48.506;9.050;2023-08-20T06:38:32;6.63;;;5.97;;
13234;SDS011;6683;48.506;9.050;2023-08-20T06:41:34;7.35;;;6.35;;
13234;SDS011;6683;48.506;9.050;2023-08-20T06:44:36;6.30;;;5.78;;
13234;SDS011;6683;48.506;9.050;2023-08-20T06:47:39;6.95;;;6.22;;
13234;SDS011;6683;48.506;9.050;2023-08-20T06:50:42;6.60;;;6.00;;
13234;SDS011;6683;48.506;9.050;2023-08-20T06:53:44;6.40;;;5.80;;
13234;SDS011;6683;48.506;9.050;2023-08-20T06:56:46;6.25;;;5.50;;
13234;SDS011;6683;48.506;9.050;2023-08-20T06:59:49;6.15;;;5.63;;
13234;SDS011;6683;48.506;9.050;2023-08-20T07:02:51;6.45;;;5.90;;
13234;SDS011;6683;48.506;9.050;2023-08-20T07:05:54;6.88;;;6.28;;
13234;SDS011;6683;48.506;9.050;2023-08-20T07:08:57;6.65;;;6.00;;
13234;SDS011;6683;48.506;9.050;2023-08-20T07:11:59;6.60;;;6.00;;
13234;SDS011;6683;48.506;9.050;2023-08-20T07:15:02;6.75;;;6.15;;
13234;SDS011;6683;48.506;9.050;2023-08-20T07:18:05;6.20;;;5.72;;
13234;SDS011;6683;48.506;9.050;2023-08-20T07:21:08;6.60;;;6.00;;
13234;SDS011;6683;48.506;9.050;2023-08-20T07:24:10;6.38;;;5.88;;
13234;SDS011;6683;48.506;9.050;2023-08-20T07:27:13;6.53;;;5.93;;
13234;SDS011;6683;48.506;9.050;2023-08-20T07:30:15;7.38;;;5.75;;
13234;SDS011;6683;48.506;9.050;2023-08-20T07:33:18;6.28;;;5.70;;
13234;SDS011;6683;48.506;9.050;2023-08-20T07:36:21;6.72;;;6.13;;
13234;SDS011;6683;48.506;9.050;2023-08-20T07:39:24;6.72;;;6.13;;
13234;SDS011;6683;48.506;9.050;2023-08-20T07:42:26;7.13;;;6.50;;
13234;SDS011;6683;48.506;9.050;2023-08-20T07:45:28;7.60;;;6.85;;
13234;SDS011;6683;48.506;9.050;2023-08-20T07:48:30;6.68;;;5.97;;
13234;SDS011;6683;48.506;9.050;2023-08-20T07:51:34;7.57;;;6.78;;
13234;SDS011;6683;48.506;9.050;2023-08-20T07:54:36;7.47;;;6.72;;
13234;SDS011;6683;48.506;9.050;2023-08-20T07:57:38;6.53;;;5.93;;
13234;SDS011;6683;48.506;9.050;2023-08-20T08:00:40;6.40;;;5.68;;
13234;SDS011;6683;48.506;9.050;2023-08-20T08:03:43;7.50;;;6.10;;
13234;SDS011;6683;48.506;9.050;2023-08-20T08:06:46;6.82;;;6.22;;
13234;SDS011;6683;48.506;9.050;2023-08-20T08:09:48;6.25;;;5.75;;
13234;SDS011;6683;48.506;9.050;2023-08-20T08:12:50;6.50;;;5.90;;
13234;SDS011;6683;48.506;9.050;2023-08-20T08:15:52;6.68;;;6.07;;
13234;SDS011;6683;48.506;9.050;2023-08-20T08:18:54;6.55;;;6.05;;
13234;SDS011;6683;48.506;9.050;2023-08-20T08:21:58;6.47;;;5.88;;
13234;SDS011;6683;48.506;9.050;2023-08-20T08:25:00;6.57;;;6.03;;
13234;SDS011;6683;48.506;9.050;2023-08-20T08:28:02;6.82;;;5.93;;
13234;SDS011;6683;48.506;9.050;2023-08-20T08:31:05;5.88;;;5.38;;
13234;SDS011;6683;48.506;9.050;2023-08-20T08:34:07;5.90;;;5.30;;
13234;SDS011;6683;48.506;9.050;2023-08-20T08:37:11;6.63;;;5.85;;
13234;SDS011;6683;48.506;9.050;2023-08-20T08:40:13;6.00;;;5.50;;
13234;SDS011;6683;48.506;9.050;2023-08-20T08:43:15;5.63;;;5.05;;
13234;SDS011;6683;48.506;9.050;2023-08-20T08:46:19;5.70;;;5.20;;
13234;SDS011;6683;48.506;9.050;2023-08-20T08:49:22;6.00;;;5.50;;
13234;SDS011;6683;48.506;9.050;2023-08-20T08:52:26;6.13;;;5.53;;
13234;SDS011;6683;48.506;9.050;2023-08-20T08:55:28;5.93;;;5.53;;
13234;SDS011;6683;48.506;9.050;2023-08-20T08:58:30;5.78;;;5.28;;
13234;SDS011;6683;48.506;9.050;2023-08-20T09:01:37;7.22;;;6.05;;
13234;SDS011;6683;48.506;9.050;2023-08-20T09:04:40;8.00;;;5.60;;
13234;SDS011;6683;48.506;9.050;2023-08-20T09:07:44;5.68;;;5.28;;
13234;SDS011;6683;48.506;9.050;2023-08-20T09:10:47;5.60;;;5.20;;
13234;SDS011;6683;48.506;9.050;2023-08-20T09:13:52;5.72;;;5.30;;
13234;SDS011;6683;48.506;9.050;2023-08-20T09:16:54;5.80;;;5.30;;
13234;SDS011;6683;48.506;9.050;2023-08-20T09:19:57;5.43;;;5.03;;
13234;SDS011;6683;48.506;9.050;2023-08-20T09:23:01;5.70;;;5.30;;
13234;SDS011;6683;48.506;9.050;2023-08-20T09:26:04;5.63;;;5.22;;
13234;SDS011;6683;48.506;9.050;2023-08-20T09:29:08;5.63;;;5.05;;
13234;SDS011;6683;48.506;9.050;2023-08-20T09:32:13;5.85;;;5.30;;
13234;SDS011;6683;48.506;9.050;2023-08-20T09:35:17;5.55;;;5.15;;
13234;SDS011;6683;48.506;9.050;2023-08-20T09:38:21;5.30;;;4.90;;
13234;SDS011;6683;48.506;9.050;2023-08-20T09:41:25;5.93;;;5.28;;
13234;SDS011;6683;48.506;9.050;2023-08-20T09:44:27;5.13;;;4.72;;
13234;SDS011;6683;48.506;9.050;2023-08-20T09:47:36;5.95;;;5.32;;
13234;SDS011;6683;48.506;9.050;2023-08-20T09:50:39;5.47;;;5.07;;
13234;SDS011;6683;48.506;9.050;2023-08-20T09:53:45;5.50;;;5.03;;
13234;SDS011;6683;48.506;9.050;2023-08-20T09:56:55;5.38;;;4.97;;
13234;SDS011;6683;48.506;9.050;2023-08-20T10:00:02;5.63;;;5.13;;
13234;SDS011;6683;48.506;9.050;2023-08-20T10:03:09;5.65;;;5.18;;
13234;SDS011;6683;48.506;9.050;2023-08-20T10:06:11;5.35;;;4.95;;
13234;SDS011;6683;48.506;9.050;2023-08-20T10:09:15;6.32;;;5.25;;
13234;SDS011;6683;48.506;9.050;2023-08-20T10:12:18;5.63;;;5.13;;
13234;SDS011;6683;48.506;9.050;2023-08-20T10:15:21;5.53;;;5.03;;
13234;SDS011;6683;48.506;9.050;2023-08-20T10:18:24;5.53;;;5.10;;
13234;SDS011;6683;48.506;9.050;2023-08-20T10:21:27;5.32;;;4.85;;
13234;SDS011;6683;48.506;9.050;2023-08-20T10:24:40;7.57;;;5.07;;
13234;SDS011;6683;48.506;9.050;2023-08-20T10:27:50;5.05;;;4.65;;
13234;SDS011;6683;48.506;9.050;2023-08-20T10:31:08;5.25;;;4.47;;
13234;SDS011;6683;48.506;9.050;2023-08-20T10:34:11;5.45;;;4.95;;
13234;SDS011;6683;48.506;9.050;2023-08-20T10:37:32;4.82;;;4.43;;
13234;SDS011;6683;48.506;9.050;2023-08-20T10:40:48;4.85;;;4.45;;
13234;SDS011;6683;48.506;9.050;2023-08-20T10:43:56;6.38;;;4.25;;
13234;SDS011;6683;48.506;9.050;2023-08-20T10:47:00;4.55;;;4.15;;
13234;SDS011;6683;48.506;9.050;2023-08-20T10:50:08;4.65;;;4.28;;
13234;SDS011;6683;48.506;9.050;2023-08-20T10:53:11;4.68;;;4.22;;
13234;SDS011;6683;48.506;9.050;2023-08-20T10:56:15;5.10;;;4.70;;
13234;SDS011;6683;48.506;9.050;2023-08-20T10:59:20;4.95;;;4.53;;
13234;SDS011;6683;48.506;9.050;2023-08-20T11:02:26;4.97;;;4.57;;
13234;SDS011;6683;48.506;9.050;2023-08-20T11:05:29;5.10;;;4.70;;
13234;SDS011;6683;48.506;9.050;2023-08-20T11:08:32;5.20;;;4.80;;
13234;SDS011;6683;48.506;9.050;2023-08-20T11:11:36;5.70;;;4.90;;
13234;SDS011;6683;48.506;9.050;2023-08-20T11:14:39;4.85;;;4.45;;
13234;SDS011;6683;48.506;9.050;2023-08-20T11:17:41;4.80;;;4.40;;
13234;SDS011;6683;48.506;9.050;2023-08-20T11:20:46;4.95;;;4.50;;
13234;SDS011;6683;48.506;9.050;2023-08-20T11:23:48;4.47;;;4.07;;
13234;SDS011;6683;48.506;9.050;2023-08-20T11:26:53;4.45;;;4.15;;
13234;SDS011;6683;48.506;9.050;2023-08-20T11:29:57;4.63;;;4.30;;
13234;SDS011;6683;48.506;9.050;2023-08-20T11:32:59;4.93;;;4.53;;
13234;SDS011;6683;48.506;9.050;2023-08-20T11:36:02;5.32;;;4.93;;
13234;SDS011;6683;48.506;9.050;2023-08-20T11:39:05;4.57;;;4.18;;
13234;SDS011;6683;48.506;9.050;2023-08-20T11:42:09;4.75;;;4.35;;
13234;SDS011;6683;48.506;9.050;2023-08-20T11:45:12;5.15;;;4.75;;
13234;SDS011;6683;48.506;9.050;2023-08-20T11:48:14;4.70;;;4.35;;
13234;SDS011;6683;48.506;9.050;2023-08-20T11:51:17;5.00;;;4.60;;
13234;SDS011;6683;48.506;9.050;2023-08-20T11:54:19;5.00;;;4.65;;
13234;SDS011;6683;48.506;9.050;2023-08-20T11:57:23;4.72;;;4.18;;
13234;SDS011;6683;48.506;9.050;2023-08-20T12:00:26;6.55;;;4.30;;
13234;SDS011;6683;48.506;9.050;2023-08-20T12:03:29;5.13;;;4.65;;
13234;SDS011;6683;48.506;9.050;2023-08-20T12:06:32;4.88;;;4.45;;
13234;SDS011;6683;48.506;9.050;2023-08-20T12:09:36;5.57;;;4.80;;
13234;SDS011;6683;48.506;9.050;2023-08-20T12:12:39;4.97;;;4.57;;
13234;SDS011;6683;48.506;9.050;2023-08-20T12:15:41;5.28;;;4.85;;
13234;SDS011;6683;48.506;9.050;2023-08-20T12:18:45;5.40;;;5.00;;
13234;SDS011;6683;48.506;9.050;2023-08-20T12:21:47;4.50;;;4.20;;
13234;SDS011;6683;48.506;9.050;2023-08-20T12:24:50;5.35;;;4.95;;
13234;SDS011;6683;48.506;9.050;2023-08-20T12:27:54;4.80;;;4.28;;
13234;SDS011;6683;48.506;9.050;2023-08-20T12:30:57;4.57;;;4.18;;
13234;SDS011;6683;48.506;9.050;2023-08-20T12:33:59;4.85;;;4.35;;
13234;SDS011;6683;48.506;9.050;2023-08-20T12:37:02;4.20;;;3.90;;
13234;SDS011;6683;48.506;9.050;2023-08-20T12:40:05;4.70;;;3.92;;
13234;SDS011;6683;48.506;9.050;2023-08-20T12:43:11;4.43;;;4.07;;
13234;SDS011;6683;48.506;9.050;2023-08-20T12:46:14;7.18;;;4.63;;
13234;SDS011;6683;48.506;9.050;2023-08-20T12:49:16;4.43;;;4.00;;
13234;SDS011;6683;48.506;9.050;2023-08-20T12:52:18;4.15;;;3.85;;
13234;SDS011;6683;48.506;9.050;2023-08-20T12:55:20;5.18;;;4.40;;
13234;SDS011;6683;48.506;9.050;2023-08-20T12:58:25;5.05;;;4.15;;
13234;SDS011;6683;48.506;9.050;2023-08-20T13:01:27;4.78;;;4.35;;
13234;SDS011;6683;48.506;9.050;2023-08-20T13:04:29;5.13;;;4.22;;
13234;SDS011;6683;48.506;9.050;2023-08-20T13:07:32;4.90;;;4.40;;
13234;SDS011;6683;48.506;9.050;2023-08-20T13:10:35;4.90;;;4.50;;
13234;SDS011;6683;48.506;9.050;2023-08-20T13:13:41;5.53;;;5.03;;
13234;SDS011;6683;48.506;9.050;2023-08-20T13:16:44;4.95;;;4.55;;
13234;SDS011;6683;48.506;9.050;2023-08-20T13:19:46;6.03;;;4.78;;
13234;SDS011;6683;48.506;9.050;2023-08-20T13:22:49;5.20;;;4.80;;
13234;SDS011;6683;48.506;9.050;2023-08-20T13:25:51;4.68;;;4.38;;
13234;SDS011;6683;48.506;9.050;2023-08-20T13:28:55;5.15;;;4.65;;
13234;SDS011;6683;48.506;9.050;2023-08-20T13:31:57;5.10;;;4.68;;
13234;SDS011;6683;48.506;9.050;2023-08-20T13:35:00;6.32;;;4.53;;
13234;SDS011;6683;48.506;9.050;2023-08-20T13:38:04;5.53;;;5.03;;
13234;SDS011;6683;48.506;9.050;2023-08-20T13:41:06;6.20;;;5.10;;
13234;SDS011;6683;48.506;9.050;2023-08-20T13:44:10;5.38;;;4.88;;
13234;SDS011;6683;48.506;9.050;2023-08-20T13:47:12;5.05;;;4.65;;
13234;SDS011;6683;48.506;9.050;2023-08-20T13:50:14;5.60;;;5.10;;
13234;SDS011;6683;48.506;9.050;2023-08-20T13:53:16;5.68;;;4.57;;
13234;SDS011;6683;48.506;9.050;2023-08-20T13:56:18;4.88;;;4.47;;
13234;SDS011;6683;48.506;9.050;2023-08-20T13:59:22;4.97;;;4.57;;
13234;SDS011;6683;48.506;9.050;2023-08-20T14:02:24;5.25;;;4.85;;
13234;SDS011;6683;48.506;9.050;2023-08-20T14:05:27;7.22;;;4.75;;
13234;SDS011;6683;48.506;9.050;2023-08-20T14:08:29;5.10;;;4.70;;
13234;SDS011;6683;48.506;9.050;2023-08-20T14:11:32;5.45;;;4.60;;
13234;SDS011;6683;48.506;9.050;2023-08-20T14:14:35;4.95;;;4.47;;
13234;SDS011;6683;48.506;9.050;2023-08-20T14:17:37;6.70;;;4.88;;
13234;SDS011;6683;48.506;9.050;2023-08-20T14:20:40;4.85;;;4.47;;
13234;SDS011;6683;48.506;9.050;2023-08-20T14:23:42;6.32;;;5.40;;
13234;SDS011;6683;48.506;9.050;2023-08-20T14:26:44;4.97;;;4.57;;
13234;SDS011;6683;48.506;9.050;2023-08-20T14:29:47;5.50;;;5.00;;
13234;SDS011;6683;48.506;9.050;2023-08-20T14:32:49;4.60;;;4.20;;
13234;SDS011;6683;48.506;9.050;2023-08-20T14:35:51;5.57;;;5.10;;
13234;SDS011;6683;48.506;9.050;2023-08-20T14:38:54;7.47;;;4.80;;
13234;SDS011;6683;48.506;9.050;2023-08-20T14:41:56;4.82;;;4.47;;
13234;SDS011;6683;48.506;9.050;2023-08-20T14:44:59;5.50;;;5.10;;
13234;SDS011;6683;48.506;9.050;2023-08-20T14:48:04;5.20;;;4.80;;
13234;SDS011;6683;48.506;9.050;2023-08-20T14:51:06;4.68;;;4.38;;
13234;SDS011;6683;48.506;9.050;2023-08-20T14:54:08;6.05;;;4.05;;
13234;SDS011;6683;48.506;9.050;2023-08-20T14:57:10;5.60;;;4.95;;
13234;SDS011;6683;48.506;9.050;2023-08-20T15:00:15;5.78;;;5.03;;
13234;SDS011;6683;48.506;9.050;2023-08-20T15:03:17;5.65;;;5.15;;
13234;SDS011;6683;48.506;9.050;2023-08-20T15:06:19;5.07;;;4.68;;
13234;SDS011;6683;48.506;9.050;2023-08-20T15:09:24;5.82;;;4.72;;
13234;SDS011;6683;48.506;9.050;2023-08-20T15:12:26;5.63;;;5.22;;
13234;SDS011;6683;48.506;9.050;2023-08-20T15:15:30;5.13;;;4.63;;
13234;SDS011;6683;48.506;9.050;2023-08-20T15:18:33;5.25;;;4.85;;
13234;SDS011;6683;48.506;9.050;2023-08-20T15:21:35;5.10;;;4.70;;
13234;SDS011;6683;48.506;9.050;2023-08-20T15:24:37;5.82;;;4.53;;
13234;SDS011;6683;48.506;9.050;2023-08-20T15:27:39;5.28;;;4.78;;
13234;SDS011;6683;48.506;9.050;2023-08-20T15:30:43;5.18;;;4.78;;
13234;SDS011;6683;48.506;9.050;2023-08-20T15:33:45;4.95;;;4.55;;
13234;SDS011;6683;48.506;9.050;2023-08-20T15:36:47;5.10;;;4.65;;
13234;SDS011;6683;48.506;9.050;2023-08-20T15:39:51;5.03;;;4.60;;
13234;SDS011;6683;48.506;9.050;2023-08-20T15:42:53;4.53;;;4.13;;
13234;SDS011;6683;48.506;9.050;2023-08-20T15:45:56;5.10;;;4.05;;
13234;SDS011;6683;48.506;9.050;2023-08-20T15:48:59;5.50;;;5.00;;
13234;SDS011;6683;48.506;9.050;2023-08-20T15:52:01;4.75;;;4.38;;
13234;SDS011;6683;48.506;9.050;2023-08-20T15:55:04;5.13;;;4.63;;
13234;SDS011;6683;48.506;9.050;2023-08-20T15:58:06;4.93;;;4.53;;
13234;SDS011;6683;48.506;9.050;2023-08-20T16:01:10;5.10;;;4.70;;
13234;SDS011;6683;48.506;9.050;2023-08-20T16:04:12;5.53;;;4.53;;
13234;SDS011;6683;48.506;9.050;2023-08-20T16:07:14;4.82;;;4.45;;
13234;SDS011;6683;48.506;9.050;2023-08-20T16:10:17;5.40;;;4.90;;
13234;SDS011;6683;48.506;9.050;2023-08-20T16:13:19;4.75;;;4.35;;
13234;SDS011;6683;48.506;9.050;2023-08-20T16:16:23;4.93;;;4.50;;
13234;SDS011;6683;48.506;9.050;2023-08-20T16:19:25;4.45;;;4.15;;
13234;SDS011;6683;48.506;9.050;2023-08-20T16:22:29;4.70;;;4.30;;
13234;SDS011;6683;48.506;9.050;2023-08-20T16:25:32;4.60;;;4.20;;
13234;SDS011;6683;48.506;9.050;2023-08-20T16:28:36;5.25;;;4.80;;
13234;SDS011;6683;48.506;9.050;2023-08-20T16:31:40;5.85;;;4.43;;
13234;SDS011;6683;48.506;9.050;2023-08-20T16:34:42;5.03;;;4.53;;
13234;SDS011;6683;48.506;9.050;2023-08-20T16:37:46;4.88;;;4.38;;
13234;SDS011;6683;48.506;9.050;2023-08-20T16:40:48;5.03;;;4.50;;
13234;SDS011;6683;48.506;9.050;2023-08-20T16:43:51;4.90;;;4.35;;
13234;SDS011;6683;48.506;9.050;2023-08-20T16:46:54;4.85;;;4.30;;
13234;SDS011;6683;48.506;9.050;2023-08-20T16:49:56;4.10;;;3.80;;
13234;SDS011;6683;48.506;9.050;2023-08-20T16:52:59;4.10;;;3.80;;
13234;SDS011;6683;48.506;9.050;2023-08-20T16:56:01;4.60;;;4.20;;
13234;SDS011;6683;48.506;9.050;2023-08-20T16:59:03;4.75;;;4.35;;
13234;SDS011;6683;48.506;9.050;2023-08-20T17:02:06;4.15;;;3.80;;
13234;SDS011;6683;48.506;9.050;2023-08-20T17:05:09;4.97;;;3.83;;
13234;SDS011;6683;48.506;9.050;2023-08-20T17:08:11;4.40;;;4.00;;
13234;SDS011;6683;48.506;9.050;2023-08-20T17:11:14;4.20;;;3.80;;
13234;SDS011;6683;48.506;9.050;2023-08-20T17:14:16;3.90;;;3.60;;
13234;SDS011;6683;48.506;9.050;2023-08-20T17:17:20;3.92;;;3.63;;
13234;SDS011;6683;48.506;9.050;2023-08-20T17:20:23;3.88;;;3.55;;
13234;SDS011;6683;48.506;9.050;2023-08-20T17:23:25;4.25;;;3.85;;
13234;SDS011;6683;48.506;9.050;2023-08-20T17:26:27;4.03;;;3.72;;
13234;SDS011;6683;48.506;9.050;2023-08-20T17:29:30;4.35;;;3.60;;
13234;SDS011;6683;48.506;9.050;2023-08-20T17:32:33;3.95;;;3.65;;
13234;SDS011;6683;48.506;9.050;2023-08-20T17:35:35;4.22;;;3.83;;
13234;SDS011;6683;48.506;9.050;2023-08-20T17:38:38;4.30;;;3.90;;
13234;SDS011;6683;48.506;9.050;2023-08-20T17:41:40;4.43;;;4.03;;
13234;SDS011;6683;48.506;9.050;2023-08-20T17:44:42;4.40;;;4.00;;
13234;SDS011;6683;48.506;9.050;2023-08-20T17:47:46;3.92;;;3.63;;
13234;SDS011;6683;48.506;9.050;2023-08-20T17:50:48;4.47;;;4.07;;
13234;SDS011;6683;48.506;9.050;2023-08-20T17:53:50;4.40;;;4.00;;
13234;SDS011;6683;48.506;9.050;2023-08-20T17:56:52;4.25;;;3.72;;
13234;SDS011;6683;48.506;9.050;2023-08-20T17:59:54;4.65;;;4.20;;
13234;SDS011;6683;48.506;9.050;2023-08-20T18:02:58;3.85;;;3.53;;
13234;SDS011;6683;48.506;9.050;2023-08-20T18:06:00;4.13;;;3.72;;
13234;SDS011;6683;48.506;9.050;2023-08-20T18:09:03;4.43;;;3.55;;
13234;SDS011;6683;48.506;9.050;2023-08-20T18:12:05;3.92;;;3.63;;
13234;SDS011;6683;48.506;9.050;2023-08-20T18:15:08;4.22;;;3.83;;
13234;SDS011;6683;48.506;9.050;2023-08-20T18:18:12;4.60;;;4.20;;
13234;SDS011;6683;48.506;9.050;2023-08-20T18:21:14;5.05;;;3.45;;
13234;SDS011;6683;48.506;9.050;2023-08-20T18:24:16;3.63;;;3.33;;
13234;SDS011;6683;48.506;9.050;2023-08-20T18:27:18;3.78;;;3.40;;
13234;SDS011;6683;48.506;9.050;2023-08-20T18:30:22;4.00;;;3.70;;
13234;SDS011;6683;48.506;9.050;2023-08-20T18:33:26;4.15;;;3.85;;
13234;SDS011;6683;48.506;9.050;2023-08-20T18:36:28;4.22;;;3.83;;
13234;SDS011;6683;48.506;9.050;2023-08-20T18:39:31;4.22;;;3.55;;